Time;durP1;ratioP1;P1;durP2;ratioP2;P2;SDS_P1;SDS_P2;PMS_P1;PMS_P2;Temp;Humidity;BMP_temperature;BMP_pressure;BME280_temperature;BME280_humidity;BME280_pressure;Samples;Min_cycle;Max_cycle;Signal;HPM_P1;HPM_P2
2023/10/16 00:00:32;;;;;;;0.70;0.60;;;5.60;99.90;;;;;;5012696;28;20479;-82
2023/10/16 00:03:00;;;;;;;1.60;1.50;;;5.60;99.90;;;;;;5012829;28;20530;-82
2023/10/16 00:05:31;;;;;;;0.53;0.40;;;5.50;99.90;;;;;;5013555;28;20518;-82
2023/10/16 00:08:05;;;;;;;0.47;0.47;;;5.60;99.90;;;;;;5016507;28;20439;-82
2023/10/16 00:10:32;;;;;;;0.40;0.40;;;5.50;99.90;;;;;;5017046;28;20838;-82
2023/10/16 00:13:04;;;;;;;1.60;0.60;;;5.50;99.90;;;;;;5016465;28;20467;-81
2023/10/16 00:15:34;;;;;;;0.43;0.43;;;5.50;99.90;;;;;;5016158;28;20917;-82
2023/10/16 00:18:01;;;;;;;2.40;0.77;;;5.40;99.90;;;;;;5016533;28;20439;-82
2023/10/16 00:20:28;;;;;;;0.77;0.40;;;5.40;99.90;;;;;;5015966;28;20447;-82
2023/10/16 00:22:55;;;;;;;0.90;0.50;;;5.30;99.90;;;;;;5015877;28;21047;-82
2023/10/16 00:25:29;;;;;;;0.47;0.40;;;5.30;99.90;;;;;;5015893;28;20795;-82
2023/10/16 00:27:56;;;;;;;0.50;0.30;;;5.30;99.90;;;;;;5016122;28;20435;-82
2023/10/16 00:30:23;;;;;;;1.17;0.60;;;5.30;99.90;;;;;;5015913;28;20806;-82
2023/10/16 00:32:51;;;;;;;0.90;0.60;;;5.30;99.90;;;;;;5015999;28;20464;-82
2023/10/16 00:35:17;;;;;;;0.87;0.40;;;5.30;99.90;;;;;;5015574;28;20534;-82
2023/10/16 00:37:44;;;;;;;0.60;0.60;;;5.20;99.90;;;;;;5015986;28;20450;-82
2023/10/16 00:40:12;;;;;;;0.60;0.40;;;5.20;99.90;;;;;;5015588;28;20941;-82
2023/10/16 00:42:43;;;;;;;0.47;0.47;;;5.20;99.90;;;;;;5015743;28;20494;-82
2023/10/16 00:45:11;;;;;;;2.17;1.10;;;5.20;99.90;;;;;;5015865;28;20432;-82
2023/10/16 00:47:39;;;;;;;0.47;0.40;;;5.10;99.90;;;;;;5015765;28;20443;-82
2023/10/16 00:50:07;;;;;;;2.63;0.53;;;5.10;99.90;;;;;;5015354;28;20480;-82
2023/10/16 00:52:35;;;;;;;0.40;0.40;;;5.10;99.90;;;;;;5015574;28;20478;-82
2023/10/16 00:55:02;;;;;;;1.50;0.60;;;5.00;99.90;;;;;;5015307;28;20995;-82
2023/10/16 00:57:29;;;;;;;1.47;0.93;;;5.00;99.90;;;;;;5015586;28;20444;-82
2023/10/16 00:59:58;;;;;;;1.93;1.03;;;5.00;99.90;;;;;;5015553;28;20440;-82
2023/10/16 01:02:31;;;;;;;0.50;0.33;;;5.00;99.90;;;;;;5015140;28;20482;-82
2023/10/16 01:05:01;;;;;;;1.67;0.87;;;5.00;99.90;;;;;;5015354;28;20452;-82
2023/10/16 01:07:28;;;;;;;0.87;0.57;;;4.90;99.90;;;;;;5015386;28;20598;-82
2023/10/16 01:09:54;;;;;;;0.40;0.40;;;4.90;99.90;;;;;;5015003;28;20989;-82
2023/10/16 01:12:22;;;;;;;1.13;0.80;;;4.90;99.90;;;;;;5014921;28;20476;-82
2023/10/16 01:14:49;;;;;;;1.13;0.70;;;4.90;99.90;;;;;;5015270;28;20447;-82
2023/10/16 01:17:29;;;;;;;0.80;0.40;;;4.90;99.90;;;;;;5014767;28;20943;-82
2023/10/16 01:19:56;;;;;;;0.80;0.60;;;4.80;99.90;;;;;;5014897;28;20771;-82
2023/10/16 01:22:29;;;;;;;0.60;0.60;;;4.80;99.90;;;;;;5014792;28;21008;-82
2023/10/16 01:24:59;;;;;;;0.83;0.50;;;4.80;99.90;;;;;;5015138;28;20432;-82
2023/10/16 01:27:29;;;;;;;0.50;0.50;;;4.70;99.90;;;;;;5015047;28;20482;-82
2023/10/16 01:29:59;;;;;;;0.60;0.60;;;4.70;99.90;;;;;;5014898;28;20575;-82
2023/10/16 01:32:27;;;;;;;0.83;0.60;;;4.70;99.90;;;;;;5014922;28;20519;-82
2023/10/16 01:34:55;;;;;;;0.97;0.80;;;4.70;99.90;;;;;;5014512;28;20483;-82
2023/10/16 01:37:23;;;;;;;0.40;0.40;;;4.70;99.90;;;;;;5014803;28;20444;-82
2023/10/16 01:39:53;;;;;;;0.40;0.40;;;4.70;99.90;;;;;;5014816;28;20451;-82
2023/10/16 01:42:22;;;;;;;0.60;0.43;;;4.70;99.90;;;;;;5014657;28;20539;-82
2023/10/16 01:44:51;;;;;;;1.00;0.60;;;4.70;99.90;;;;;;5014690;28;20490;-82
2023/10/16 01:47:18;;;;;;;0.50;0.50;;;4.70;99.90;;;;;;5014652;28;20506;-82
2023/10/16 01:49:47;;;;;;;0.37;0.37;;;4.70;99.90;;;;;;5014543;28;20515;-82
2023/10/16 01:52:14;;;;;;;2.80;1.20;;;4.70;99.90;;;;;;5014474;28;20486;-82
2023/10/16 01:54:44;;;;;;;0.60;0.60;;;4.70;99.90;;;;;;5015326;28;20450;-82
2023/10/16 01:57:12;;;;;;;0.83;0.83;;;4.70;99.90;;;;;;5014476;28;20540;-82
2023/10/16 01:59:44;;;;;;;3.03;1.10;;;4.60;99.90;;;;;;5014550;28;20452;-81
2023/10/16 02:02:12;;;;;;;0.40;0.40;;;4.60;99.90;;;;;;5015177;28;20440;-82
2023/10/16 02:04:40;;;;;;;0.67;0.67;;;4.60;99.90;;;;;;5014367;28;20448;-82
2023/10/16 02:07:08;;;;;;;0.60;0.60;;;4.50;99.90;;;;;;5014294;28;20462;-82
2023/10/16 02:09:36;;;;;;;0.43;0.37;;;4.50;99.90;;;;;;5014207;28;20542;-82
2023/10/16 02:12:05;;;;;;;0.43;0.43;;;4.50;99.90;;;;;;5014144;28;20509;-82
2023/10/16 02:14:37;;;;;;;0.77;0.77;;;4.50;99.90;;;;;;5014218;28;20452;-82
2023/10/16 02:17:09;;;;;;;0.40;0.40;;;4.50;99.90;;;;;;5014865;28;20454;-82
2023/10/16 02:19:36;;;;;;;2.53;0.87;;;4.50;99.90;;;;;;5013867;28;20434;-82
2023/10/16 02:22:03;;;;;;;0.97;0.60;;;4.50;99.90;;;;;;5013682;28;20936;-82
2023/10/16 02:24:31;;;;;;;0.50;0.50;;;4.50;99.90;;;;;;5014011;28;20649;-82
2023/10/16 02:26:57;;;;;;;0.50;0.50;;;4.50;99.90;;;;;;5013997;28;20455;-82
2023/10/16 02:29:28;;;;;;;0.60;0.60;;;4.40;99.90;;;;;;5013323;28;20586;-82
2023/10/16 02:31:56;;;;;;;1.60;0.80;;;4.40;99.90;;;;;;5013994;28;20523;-82
2023/10/16 02:34:24;;;;;;;0.30;0.30;;;4.40;99.90;;;;;;5013390;28;20900;-82
2023/10/16 02:36:54;;;;;;;1.43;0.80;;;4.40;99.90;;;;;;5013856;28;20448;-82
2023/10/16 02:42:16;;;;;;;1.00;1.00;;;4.40;99.90;;;;;;5152629;27;20514;-81
2023/10/16 02:44:45;;;;;;;6.43;0.70;;;4.30;99.90;;;;;;5152373;27;20472;-81
2023/10/16 02:47:13;;;;;;;1.67;1.27;;;4.30;99.90;;;;;;5152174;27;20468;-81
2023/10/16 02:49:47;;;;;;;0.50;0.50;;;4.30;99.90;;;;;;5152339;27;20472;-80
2023/10/16 02:52:16;;;;;;;0.50;0.50;;;4.30;99.90;;;;;;5152240;27;20425;-81
2023/10/16 02:54:43;;;;;;;0.87;0.53;;;4.30;99.90;;;;;;5152450;27;20436;-80
2023/10/16 02:57:11;;;;;;;1.60;0.60;;;4.30;99.90;;;;;;5152260;27;20533;-80
2023/10/16 02:59:39;;;;;;;0.40;0.40;;;4.20;99.90;;;;;;5152207;27;20434;-81
2023/10/16 03:02:13;;;;;;;1.07;0.50;;;4.20;99.90;;;;;;5151842;27;20434;-81
2023/10/16 03:04:41;;;;;;;0.70;0.70;;;4.10;99.90;;;;;;5152110;27;20434;-81
2023/10/16 03:07:07;;;;;;;1.23;1.00;;;4.10;99.90;;;;;;5151694;27;20933;-81
2023/10/16 03:09:34;;;;;;;0.90;0.47;;;4.10;99.90;;;;;;5152245;27;20444;-81
2023/10/16 03:12:07;;;;;;;0.60;0.60;;;4.10;99.90;;;;;;5151765;27;20492;-81
2023/10/16 03:14:45;;;;;;;0.70;0.70;;;4.10;99.90;;;;;;5151915;27;20426;-81
2023/10/16 03:17:19;;;;;;;0.60;0.60;;;4.10;99.90;;;;;;5151837;27;20425;-81
2023/10/16 03:19:48;;;;;;;0.40;0.40;;;4.00;99.90;;;;;;5151796;27;20470;-81
2023/10/16 03:22:17;;;;;;;0.83;0.50;;;4.10;99.90;;;;;;5151278;27;20958;-81
2023/10/16 03:24:45;;;;;;;0.90;0.47;;;4.10;99.90;;;;;;5151446;27;20953;-81
2023/10/16 03:27:23;;;;;;;1.80;0.50;;;4.10;99.90;;;;;;5151620;27;20449;-81
2023/10/16 03:29:51;;;;;;;1.00;0.77;;;4.10;99.90;;;;;;5151616;27;20425;-81
2023/10/16 03:32:19;;;;;;;0.40;0.40;;;4.10;99.90;;;;;;5151153;27;20888;-81
2023/10/16 03:34:46;;;;;;;0.40;0.40;;;4.10;99.90;;;;;;5151122;27;20934;-81
2023/10/16 03:37:14;;;;;;;0.60;0.60;;;4.00;99.90;;;;;;5151448;27;20448;-81
2023/10/16 03:39:41;;;;;;;0.40;0.40;;;4.00;99.90;;;;;;5151379;27;20446;-81
2023/10/16 03:42:09;;;;;;;0.50;0.50;;;3.90;99.90;;;;;;5150851;27;20496;-81
2023/10/16 03:44:38;;;;;;;0.60;0.57;;;3.90;99.90;;;;;;5151290;27;20447;-81
2023/10/16 03:47:07;;;;;;;0.40;0.40;;;3.80;99.90;;;;;;5151398;27;20813;-81
2023/10/16 03:49:36;;;;;;;0.40;0.40;;;3.90;99.90;;;;;;5151202;27;20441;-81
2023/10/16 03:52:03;;;;;;;1.13;0.40;;;3.80;99.90;;;;;;5145808;27;20509;-81
2023/10/16 03:54:31;;;;;;;1.37;1.03;;;3.80;99.90;;;;;;5136976;27;20899;-81
2023/10/16 03:57:00;;;;;;;2.57;0.80;;;3.80;99.90;;;;;;5137030;27;20821;-81
2023/10/16 03:59:29;;;;;;;1.43;0.83;;;3.80;99.90;;;;;;5137213;27;20442;-81
2023/10/16 04:01:56;;;;;;;0.50;0.50;;;3.70;99.90;;;;;;5136818;27;20438;-81
2023/10/16 04:04:25;;;;;;;0.50;0.50;;;3.70;99.90;;;;;;5137051;27;20466;-81
2023/10/16 04:06:56;;;;;;;0.57;0.57;;;3.70;99.90;;;;;;5136742;27;20901;-81
2023/10/16 04:09:29;;;;;;;1.17;0.50;;;3.70;99.90;;;;;;5137132;27;20430;-81
2023/10/16 04:11:56;;;;;;;0.53;0.53;;;3.70;99.90;;;;;;5136942;27;20550;-81
2023/10/16 04:14:44;;;;;;;0.40;0.40;;;3.70;99.90;;;;;;5136889;27;20552;-81
2023/10/16 04:17:11;;;;;;;2.87;0.97;;;3.70;99.90;;;;;;5136726;27;20435;-81
2023/10/16 04:19:52;;;;;;;0.50;0.50;;;3.70;99.90;;;;;;5136785;27;20438;-81
2023/10/16 04:22:23;;;;;;;0.40;0.40;;;3.70;99.90;;;;;;5136701;27;20770;-81
2023/10/16 04:24:54;;;;;;;1.50;0.50;;;3.60;99.90;;;;;;5136799;27;20433;-81
2023/10/16 04:27:29;;;;;;;0.47;0.47;;;3.60;99.90;;;;;;5136703;27;20470;-81
2023/10/16 04:32:47;;;;;;;0.60;0.60;;;3.50;99.90;;;;;;5136443;27;20485;-81
2023/10/16 04:37:56;;;;;;;0.60;0.60;;;3.60;99.90;;;;;;5136386;27;20479;-81
2023/10/16 04:43:16;;;;;;;0.40;0.40;;;3.60;99.90;;;;;;5135809;27;20462;-81
2023/10/16 04:46:16;;;;;;;2.10;0.80;;;3.60;99.90;;;;;;5136337;27;20438;-81
2023/10/16 04:48:51;;;;;;;0.60;0.60;;;3.60;99.90;;;;;;5135954;27;20431;-81
2023/10/16 04:51:22;;;;;;;6.00;0.63;;;3.60;99.90;;;;;;5136176;27;20519;-81
2023/10/16 04:53:59;;;;;;;2.10;0.70;;;3.60;99.90;;;;;;5136110;27;20458;-81
2023/10/16 04:59:58;;;;;;;0.60;0.60;;;3.60;99.90;;;;;;5135880;27;20430;-81
2023/10/16 05:02:33;;;;;;;0.83;0.43;;;3.60;99.90;;;;;;5136202;27;20978;-81
2023/10/16 05:05:32;;;;;;;0.50;0.50;;;3.60;99.90;;;;;;5134905;27;20422;-81
2023/10/16 05:07:53;;;;;;;0.47;0.47;;;3.60;99.90;;;;;;5135450;27;20450;-81
2023/10/16 05:13:24;;;;;;;0.40;0.40;;;3.60;99.90;;;;;;5135480;27;20441;-81
2023/10/16 05:19:02;;;;;;;2.13;1.00;;;3.50;99.90;;;;;;5135127;27;20490;-81
2023/10/16 06:16:20;;;;;;;0.40;0.40;;;3.50;99.90;;;;;;5134434;27;20406;-81
2023/10/16 06:18:48;;;;;;;0.60;0.60;;;3.60;99.90;;;;;;5134516;27;20442;-82
2023/10/16 06:21:16;;;;;;;1.20;0.70;;;3.60;99.90;;;;;;5134554;27;20442;-81
2023/10/16 06:23:47;;;;;;;0.97;0.70;;;3.60;99.90;;;;;;5134132;27;20450;-81
2023/10/16 06:26:14;;;;;;;0.77;0.77;;;3.70;99.90;;;;;;5134554;27;20431;-81
2023/10/16 06:28:47;;;;;;;0.60;0.60;;;3.70;99.90;;;;;;5134380;27;20817;-81
2023/10/16 06:31:15;;;;;;;0.60;0.60;;;3.80;99.90;;;;;;5134417;27;20462;-81
2023/10/16 06:33:43;;;;;;;1.83;1.40;;;3.80;99.90;;;;;;5133950;27;20465;-81
2023/10/16 06:36:12;;;;;;;1.37;0.60;;;3.90;99.90;;;;;;5134363;27;20453;-81
2023/10/16 06:38:39;;;;;;;2.00;1.40;;;3.90;99.90;;;;;;5134004;27;21005;-81
2023/10/16 06:41:06;;;;;;;0.70;0.70;;;4.00;99.90;;;;;;5133973;27;20845;-81
2023/10/16 06:43:35;;;;;;;4.37;0.90;;;4.10;99.90;;;;;;5133898;27;20472;-81
2023/10/16 06:46:09;;;;;;;0.70;0.70;;;4.20;99.90;;;;;;5134279;27;20446;-81
2023/10/16 06:48:37;;;;;;;0.70;0.70;;;4.20;99.90;;;;;;5134262;27;20430;-81
2023/10/16 06:51:14;;;;;;;0.83;0.70;;;4.20;99.90;;;;;;5134198;27;20489;-81
2023/10/16 06:53:41;;;;;;;2.43;1.00;;;4.30;99.90;;;;;;5134133;27;20470;-81
2023/10/16 06:56:08;;;;;;;0.93;0.80;;;4.30;99.90;;;;;;5133838;27;20449;-81
2023/10/16 06:58:35;;;;;;;0.70;0.70;;;4.40;99.90;;;;;;5133852;27;20446;-81
2023/10/16 07:01:03;;;;;;;0.60;0.60;;;4.50;99.90;;;;;;5134113;27;20502;-81
2023/10/16 07:03:30;;;;;;;0.93;0.63;;;4.50;99.90;;;;;;5134354;27;20461;-81
2023/10/16 07:05:57;;;;;;;2.03;1.40;;;4.60;99.90;;;;;;5134003;27;20466;-81
2023/10/16 07:08:25;;;;;;;1.00;0.87;;;4.60;99.90;;;;;;5134320;27;20939;-81
2023/10/16 07:10:55;;;;;;;0.47;0.47;;;4.60;99.90;;;;;;5133638;27;20931;-81
2023/10/16 07:13:30;;;;;;;0.77;0.77;;;4.60;99.90;;;;;;5133927;27;20561;-81
2023/10/16 07:15:59;;;;;;;0.60;0.60;;;4.70;99.90;;;;;;5134040;27;20426;-81
2023/10/16 07:18:27;;;;;;;0.47;0.47;;;4.70;99.90;;;;;;5133962;27;20446;-81
2023/10/16 07:20:59;;;;;;;1.20;0.70;;;4.70;99.90;;;;;;5134189;27;20442;-80
2023/10/16 07:23:29;;;;;;;3.57;1.27;;;4.80;99.90;;;;;;5133866;27;20466;-80
2023/10/16 07:25:58;;;;;;;1.07;0.83;;;4.90;99.90;;;;;;5133767;27;20453;-81
2023/10/16 07:28:26;;;;;;;1.93;1.20;;;4.90;99.90;;;;;;5136441;27;20532;-80
2023/10/16 07:30:56;;;;;;;2.20;0.90;;;5.00;99.90;;;;;;5137469;27;20435;-80
2023/10/16 07:33:23;;;;;;;1.00;1.00;;;5.00;99.90;;;;;;5137569;27;20453;-81
2023/10/16 07:35:52;;;;;;;1.87;0.70;;;5.10;99.90;;;;;;5137264;27;20440;-80
2023/10/16 07:38:22;;;;;;;0.80;0.80;;;5.20;99.90;;;;;;5137275;27;20441;-81
2023/10/16 07:40:52;;;;;;;0.73;0.50;;;5.30;99.90;;;;;;5137025;27;20466;-80
2023/10/16 07:43:21;;;;;;;1.43;1.23;;;5.30;99.90;;;;;;5137170;27;20457;-80
2023/10/16 07:45:50;;;;;;;3.63;1.23;;;5.30;99.90;;;;;;5137117;27;20491;-81
2023/10/16 07:48:21;;;;;;;1.87;1.00;;;5.40;99.90;;;;;;5137139;27;20422;-81
2023/10/16 07:50:49;;;;;;;1.17;0.73;;;5.40;99.90;;;;;;5137405;27;20438;-80
2023/10/16 07:53:18;;;;;;;1.70;0.60;;;5.50;99.90;;;;;;5137249;27;20482;-81
2023/10/16 07:55:50;;;;;;;2.77;1.10;;;5.60;99.90;;;;;;5137332;27;20813;-81
2023/10/16 07:58:23;;;;;;;2.57;1.30;;;5.60;99.90;;;;;;5137023;27;20898;-81
2023/10/16 08:00:59;;;;;;;0.60;0.47;;;5.80;99.90;;;;;;5136950;27;20422;-81
2023/10/16 08:03:27;;;;;;;0.63;0.50;;;5.90;99.90;;;;;;5136763;27;20506;-82
2023/10/16 08:05:54;;;;;;;0.80;0.80;;;6.10;99.90;;;;;;5137164;27;20475;-81
2023/10/16 08:08:35;;;;;;;1.27;0.93;;;6.20;99.90;;;;;;5137880;27;20753;-81
2023/10/16 08:11:12;;;;;;;0.97;0.90;;;6.30;99.90;;;;;;5137765;27;20777;-81
2023/10/16 08:13:46;;;;;;;0.47;0.43;;;6.40;99.90;;;;;;5136896;27;20452;-81
2023/10/16 08:16:17;;;;;;;1.10;0.80;;;6.70;99.90;;;;;;5136633;27;20951;-81
2023/10/16 08:18:48;;;;;;;0.70;0.70;;;6.80;99.90;;;;;;5136548;27;20427;-81
2023/10/16 08:21:23;;;;;;;1.73;1.27;;;7.10;99.90;;;;;;5136559;27;20431;-80
2023/10/16 08:23:51;;;;;;;1.10;1.00;;;7.20;99.90;;;;;;5136367;27;20466;-80
2023/10/16 08:26:28;;;;;;;1.90;1.20;;;7.30;99.90;;;;;;5136425;27;20922;-81
2023/10/16 08:28:57;;;;;;;1.00;0.43;;;7.50;99.90;;;;;;5136399;27;20436;-80
2023/10/16 08:31:24;;;;;;;1.13;0.70;;;7.80;99.90;;;;;;5136166;27;20445;-81
2023/10/16 08:33:51;;;;;;;0.47;0.47;;;8.10;99.90;;;;;;5136131;27;21020;-81
2023/10/16 08:36:19;;;;;;;1.03;0.40;;;8.30;99.90;;;;;;5136208;27;20437;-81
2023/10/16 08:38:52;;;;;;;2.70;1.13;;;8.60;99.90;;;;;;5135998;27;20442;-81
2023/10/16 08:41:29;;;;;;;0.50;0.40;;;8.80;99.90;;;;;;5135950;27;20501;-80
2023/10/16 08:44:04;;;;;;;0.63;0.60;;;9.10;99.90;;;;;;5135960;27;20554;-81
2023/10/16 08:46:32;;;;;;;0.90;0.60;;;9.60;99.90;;;;;;5136259;27;20426;-81
2023/10/16 08:49:00;;;;;;;0.37;0.37;;;9.90;99.90;;;;;;5135913;27;20478;-81
2023/10/16 08:51:29;;;;;;;1.07;0.80;;;10.60;99.90;;;;;;5136120;27;20449;-81
2023/10/16 08:54:01;;;;;;;1.00;0.70;;;11.40;99.90;;;;;;5135725;27;20461;-81
2023/10/16 08:56:27;;;;;;;0.60;0.60;;;12.30;99.90;;;;;;5135851;27;20487;-81
2023/10/16 08:58:57;;;;;;;0.90;0.60;;;13.40;99.90;;;;;;5135879;27;20457;-81
2023/10/16 09:01:28;;;;;;;0.90;0.90;;;14.70;99.90;;;;;;5135936;27;20537;-81
2023/10/16 09:04:05;;;;;;;1.30;0.70;;;15.60;99.90;;;;;;5135531;27;20566;-81
2023/10/16 09:06:37;;;;;;;1.10;0.70;;;16.40;99.90;;;;;;5135631;27;20432;-81
2023/10/16 09:09:13;;;;;;;0.60;0.60;;;16.90;99.90;;;;;;5135922;27;20842;-81
2023/10/16 09:11:40;;;;;;;0.80;0.60;;;17.50;99.90;;;;;;5135528;27;20430;-81
2023/10/16 09:14:13;;;;;;;0.70;0.70;;;17.90;99.90;;;;;;5135601;27;20870;-81
2023/10/16 09:16:43;;;;;;;3.03;1.10;;;17.80;99.90;;;;;;5135741;27;20894;-81
2023/10/16 09:19:12;;;;;;;0.80;0.80;;;17.40;98.40;;;;;;5135639;27;20521;-81
2023/10/16 09:21:43;;;;;;;1.90;0.87;;;16.70;99.10;;;;;;5135279;27;20438;-81
2023/10/16 09:24:13;;;;;;;1.00;0.70;;;16.20;99.90;;;;;;5135482;27;20466;-81
2023/10/16 09:26:44;;;;;;;1.03;0.77;;;15.80;99.90;;;;;;5135167;27;20934;-82
2023/10/16 09:29:16;;;;;;;1.63;0.87;;;15.40;99.90;;;;;;5135363;27;20427;-79
2023/10/16 09:31:44;;;;;;;1.30;0.90;;;15.00;99.90;;;;;;5135354;27;20430;-81
2023/10/16 09:34:17;;;;;;;0.63;0.63;;;14.80;99.90;;;;;;5134918;27;20860;-81
2023/10/16 09:36:48;;;;;;;6.40;1.37;;;14.80;99.90;;;;;;5137112;27;20513;-81
2023/10/16 09:39:18;;;;;;;1.80;1.70;;;15.00;99.90;;;;;;5135334;27;20437;-81
2023/10/16 09:41:49;;;;;;;0.70;0.70;;;15.20;99.90;;;;;;5134815;27;20473;-81
2023/10/16 09:44:36;;;;;;;1.17;1.03;;;15.10;99.40;;;;;;5135039;27;20553;-81
2023/10/16 09:47:25;;;;;;;0.90;0.60;;;15.00;99.20;;;;;;5135157;27;20431;-81
2023/10/16 09:49:50;;;;;;;0.50;0.50;;;14.90;99.70;;;;;;5134085;27;20442;-81
2023/10/16 09:52:21;;;;;;;1.60;0.60;;;14.90;99.10;;;;;;5134900;27;20478;-81
2023/10/16 09:54:48;;;;;;;0.53;0.40;;;14.90;99.40;;;;;;5135012;27;20427;-80
2023/10/16 09:57:19;;;;;;;2.57;0.50;;;15.00;99.20;;;;;;5134944;27;20817;-80
2023/10/16 09:59:53;;;;;;;0.70;0.50;;;15.10;99.90;;;;;;5134637;27;20902;-81
2023/10/16 10:02:25;;;;;;;0.50;0.50;;;15.10;97.70;;;;;;5134665;27;20499;-82
2023/10/16 10:05:01;;;;;;;6.43;1.10;;;15.00;96.40;;;;;;5134471;27;20427;-83
2023/10/16 10:07:37;;;;;;;1.90;0.60;;;14.80;97.00;;;;;;5134526;27;20430;-82
2023/10/16 10:12:51;;;;;;;0.50;0.50;;;14.90;97.20;;;;;;5134006;27;20538;-81
2023/10/16 10:15:26;;;;;;;1.97;0.70;;;15.60;96.00;;;;;;5134672;27;20418;-81
2023/10/16 10:17:55;;;;;;;0.60;0.50;;;16.20;95.10;;;;;;5134610;27;20479;-81
2023/10/16 10:20:26;;;;;;;1.53;0.80;;;16.60;94.30;;;;;;5134647;27;20426;-83
2023/10/16 10:22:59;;;;;;;2.00;0.40;;;16.80;94.20;;;;;;5134423;27;20505;-81
2023/10/16 10:25:35;;;;;;;0.60;0.50;;;17.10;93.70;;;;;;5134555;27;20431;-82
2023/10/16 10:28:09;;;;;;;2.70;0.50;;;17.40;93.20;;;;;;5134424;27;20469;-82
2023/10/16 10:30:43;;;;;;;0.60;0.50;;;17.80;92.10;;;;;;5134469;27;20808;-83
2023/10/16 10:33:11;;;;;;;1.60;0.70;;;18.50;90.60;;;;;;5134332;27;20539;-82
2023/10/16 10:35:39;;;;;;;4.20;0.60;;;19.00;89.30;;;;;;5134143;27;20441;-83
2023/10/16 10:38:18;;;;;;;0.73;0.63;;;19.00;88.30;;;;;;5134374;27;20430;-83
2023/10/16 10:41:14;;;;;;;0.60;0.60;;;19.20;87.20;;;;;;5134143;27;20462;-83
2023/10/16 10:43:46;;;;;;;0.70;0.70;;;19.10;87.20;;;;;;5134304;27;20462;-83
2023/10/16 10:46:15;;;;;;;0.57;0.57;;;18.70;87.70;;;;;;5134881;27;20434;-83
2023/10/16 10:48:44;;;;;;;1.10;0.60;;;17.80;88.10;;;;;;5134332;27;20487;-83
2023/10/16 10:51:14;;;;;;;4.73;0.60;;;16.70;89.10;;;;;;5134260;27;20442;-83
2023/10/16 10:53:53;;;;;;;0.70;0.50;;;15.90;91.40;;;;;;5133775;27;21059;-82
2023/10/16 10:56:21;;;;;;;1.37;0.70;;;15.10;91.80;;;;;;5133914;27;20902;-83
2023/10/16 10:58:49;;;;;;;0.47;0.47;;;14.50;92.60;;;;;;5134702;27;20491;-83
2023/10/16 11:01:26;;;;;;;1.53;0.60;;;14.10;93.20;;;;;;5134183;27;20442;-83
2023/10/16 11:03:53;;;;;;;0.60;0.60;;;13.80;93.30;;;;;;5137802;27;20823;-83
2023/10/16 11:06:22;;;;;;;0.60;0.60;;;13.50;94.30;;;;;;5138271;27;20819;-83
2023/10/16 11:08:55;;;;;;;2.03;0.90;;;13.30;94.70;;;;;;5137964;27;20442;-83
2023/10/16 11:11:23;;;;;;;1.70;0.80;;;13.20;95.00;;;;;;5138475;27;20445;-84
2023/10/16 11:13:50;;;;;;;0.73;0.73;;;13.00;94.70;;;;;;5138216;27;20538;-82
2023/10/16 11:16:19;;;;;;;0.50;0.50;;;12.90;94.30;;;;;;5138367;27;20442;-83
2023/10/16 11:19:08;;;;;;;0.90;0.60;;;12.80;95.30;;;;;;5138243;27;20450;-82
2023/10/16 11:21:39;;;;;;;0.80;0.60;;;12.80;95.10;;;;;;5138337;27;20450;-83
2023/10/16 11:24:07;;;;;;;0.50;0.40;;;12.80;95.60;;;;;;5137930;27;20789;-81
2023/10/16 11:26:34;;;;;;;0.73;0.73;;;12.60;95.60;;;;;;5138125;27;20438;-83
2023/10/16 11:29:02;;;;;;;1.53;0.50;;;12.50;94.50;;;;;;5137909;27;20444;-83
2023/10/16 11:31:30;;;;;;;0.80;0.80;;;12.40;95.10;;;;;;5137991;27;20434;-82
2023/10/16 11:34:06;;;;;;;4.00;0.77;;;12.30;95.10;;;;;;5137680;27;20485;-83
2023/10/16 11:36:35;;;;;;;1.33;0.77;;;12.30;95.80;;;;;;5137975;27;20422;-82
2023/10/16 11:39:03;;;;;;;0.70;0.70;;;12.20;96.20;;;;;;5137393;27;20442;-82
2023/10/16 11:41:32;;;;;;;0.67;0.60;;;12.20;96.80;;;;;;5137150;27;20517;-83
2023/10/16 11:44:01;;;;;;;0.87;0.50;;;12.20;96.00;;;;;;5137732;27;20454;-82
2023/10/16 11:46:33;;;;;;;2.40;0.50;;;12.10;94.30;;;;;;5137332;27;20450;-82
2023/10/16 11:49:17;;;;;;;0.50;0.50;;;12.10;94.50;;;;;;5137406;27;20554;-82
2023/10/16 11:51:46;;;;;;;1.47;0.50;;;12.00;95.10;;;;;;5137329;27;20422;-82
2023/10/16 11:54:18;;;;;;;0.60;0.60;;;11.80;96.00;;;;;;5137531;27;20538;-81
2023/10/16 11:56:47;;;;;;;0.77;0.60;;;11.70;96.20;;;;;;5137211;27;20439;-83
2023/10/16 11:59:15;;;;;;;0.50;0.50;;;11.80;96.50;;;;;;5137474;27;20442;-86
2023/10/16 12:01:44;;;;;;;0.87;0.60;;;11.70;96.20;;;;;;5137565;27;20533;-83
2023/10/16 12:04:12;;;;;;;0.70;0.57;;;11.80;96.10;;;;;;5137778;27;20507;-83
2023/10/16 12:06:39;;;;;;;0.60;0.60;;;11.80;96.40;;;;;;5136860;27;20957;-83
2023/10/16 12:09:12;;;;;;;1.23;0.70;;;11.80;96.00;;;;;;5137052;27;20490;-83
2023/10/16 12:11:40;;;;;;;0.60;0.60;;;11.70;96.60;;;;;;5136767;27;20899;-84
2023/10/16 12:14:07;;;;;;;3.13;0.57;;;11.40;95.80;;;;;;5136440;27;20503;-83
2023/10/16 12:16:34;;;;;;;0.60;0.57;;;11.40;95.10;;;;;;5136983;27;20452;-83
2023/10/16 12:19:05;;;;;;;1.23;0.50;;;11.30;95.60;;;;;;5136590;27;20434;-84
2023/10/16 12:21:31;;;;;;;0.60;0.50;;;11.20;95.40;;;;;;5137008;27;20431;-83
2023/10/16 12:23:58;;;;;;;2.73;1.27;;;11.20;95.10;;;;;;5136888;27;20515;-83
2023/10/16 12:26:26;;;;;;;0.70;0.50;;;11.10;95.20;;;;;;5137009;27;20450;-83
2023/10/16 12:28:52;;;;;;;0.97;0.70;;;11.00;95.60;;;;;;5136461;27;20446;-83
2023/10/16 12:31:19;;;;;;;0.73;0.60;;;11.00;96.90;;;;;;5136769;27;20515;-83
2023/10/16 12:33:46;;;;;;;0.63;0.50;;;11.20;95.80;;;;;;5136431;27;20490;-83
2023/10/16 12:36:14;;;;;;;0.50;0.50;;;11.10;96.10;;;;;;5136643;27;20438;-83
2023/10/16 12:38:44;;;;;;;0.70;0.60;;;11.10;96.60;;;;;;5136567;27;20450;-84
2023/10/16 12:41:12;;;;;;;0.63;0.40;;;11.10;95.90;;;;;;5136221;27;20482;-83
2023/10/16 12:43:40;;;;;;;0.50;0.50;;;11.30;95.40;;;;;;5136118;27;20458;-84
2023/10/16 12:46:07;;;;;;;0.40;0.40;;;11.30;96.00;;;;;;5136396;27;20442;-84
2023/10/16 12:48:34;;;;;;;0.60;0.60;;;11.30;94.50;;;;;;5136298;27;20446;-82
2023/10/16 12:51:00;;;;;;;4.83;0.70;;;11.20;94.40;;;;;;5135941;27;20809;-82
2023/10/16 12:53:29;;;;;;;1.67;0.70;;;11.20;94.80;;;;;;5136053;27;20535;-82
2023/10/16 12:55:58;;;;;;;0.73;0.73;;;11.20;95.40;;;;;;5135858;27;20919;-81
2023/10/16 12:58:26;;;;;;;0.60;0.60;;;11.10;95.00;;;;;;5136087;27;20445;-82
2023/10/16 13:00:53;;;;;;;0.90;0.40;;;11.10;94.70;;;;;;5136069;27;20486;-82
2023/10/16 13:03:20;;;;;;;0.50;0.40;;;11.10;93.50;;;;;;5135978;27;20454;-81
2023/10/16 13:05:47;;;;;;;0.43;0.43;;;11.20;93.90;;;;;;5135712;27;20479;-81
2023/10/16 13:08:16;;;;;;;1.47;0.60;;;11.10;93.70;;;;;;5135662;27;20426;-81
2023/10/16 13:10:48;;;;;;;1.67;0.57;;;11.20;94.20;;;;;;5135882;27;20486;-81
2023/10/16 13:13:19;;;;;;;0.50;0.40;;;11.20;94.80;;;;;;5135735;27;20493;-81
2023/10/16 13:15:52;;;;;;;0.53;0.53;;;11.20;94.40;;;;;;5135794;27;20517;-82
2023/10/16 13:18:27;;;;;;;0.60;0.50;;;11.20;94.70;;;;;;5135742;27;20430;-82
2023/10/16 13:20:57;;;;;;;0.40;0.40;;;11.10;94.60;;;;;;5135725;27;20430;-83
2023/10/16 13:23:25;;;;;;;0.60;0.60;;;11.10;95.30;;;;;;5135521;27;20466;-81
2023/10/16 13:25:56;;;;;;;0.67;0.50;;;11.10;94.70;;;;;;5134737;27;20442;-81
2023/10/16 13:28:23;;;;;;;4.33;0.50;;;11.10;95.00;;;;;;5135583;27;20465;-81
2023/10/16 13:30:51;;;;;;;0.50;0.40;;;11.10;94.50;;;;;;5135527;27;20446;-81
2023/10/16 13:33:18;;;;;;;0.83;0.83;;;11.10;93.50;;;;;;5135302;27;20484;-81
2023/10/16 13:35:45;;;;;;;1.13;0.50;;;11.10;93.50;;;;;;5135373;27;20438;-81
2023/10/16 13:38:12;;;;;;;0.50;0.50;;;11.10;93.80;;;;;;5135374;27;20438;-82
2023/10/16 13:40:39;;;;;;;1.10;0.83;;;11.00;93.40;;;;;;5134927;27;20489;-81
2023/10/16 13:43:10;;;;;;;0.73;0.50;;;11.10;92.60;;;;;;5135136;27;20536;-81
2023/10/16 13:45:38;;;;;;;0.40;0.40;;;11.10;92.20;;;;;;5135216;27;20535;-81
2023/10/16 13:48:09;;;;;;;0.80;0.40;;;11.10;91.90;;;;;;5135185;27;20491;-81
2023/10/16 13:50:36;;;;;;;0.40;0.40;;;11.00;91.90;;;;;;5135900;27;20446;-81
2023/10/16 13:53:04;;;;;;;0.40;0.40;;;11.00;92.20;;;;;;5134964;27;20473;-81
2023/10/16 13:55:31;;;;;;;0.93;0.40;;;11.10;90.80;;;;;;5135008;27;20444;-81
2023/10/16 13:57:58;;;;;;;0.50;0.40;;;11.00;91.50;;;;;;5135018;27;20450;-81
2023/10/16 14:00:36;;;;;;;0.50;0.50;;;11.10;91.70;;;;;;5134641;27;20448;-82
2023/10/16 14:03:07;;;;;;;0.40;0.40;;;11.00;92.00;;;;;;5134855;27;20517;-82
2023/10/16 14:05:38;;;;;;;0.63;0.47;;;11.10;91.60;;;;;;5134888;27;20430;-82
2023/10/16 14:08:09;;;;;;;0.47;0.47;;;11.10;91.60;;;;;;5134847;27;20819;-82
2023/10/16 14:10:36;;;;;;;0.50;0.50;;;11.20;92.10;;;;;;5134860;27;20427;-81
2023/10/16 14:13:11;;;;;;;0.50;0.50;;;11.10;91.20;;;;;;5134317;27;20480;-82
2023/10/16 14:15:41;;;;;;;0.40;0.40;;;11.10;92.00;;;;;;5134725;27;20431;-82
2023/10/16 14:18:14;;;;;;;0.30;0.30;;;11.10;92.10;;;;;;5134663;27;20491;-82
2023/10/16 14:20:45;;;;;;;0.40;0.40;;;11.10;92.10;;;;;;5134678;27;20431;-82
2023/10/16 14:23:12;;;;;;;0.50;0.50;;;11.10;92.30;;;;;;5134568;27;20522;-82
2023/10/16 14:25:45;;;;;;;1.43;0.90;;;11.10;92.80;;;;;;5134554;27;20533;-82